sensor_id;sensor_type;location;lat;lon;timestamp;P1;durP1;ratioP1;P2;durP2;ratioP2
35530;SDS011;21637;53.352;-6.356;2023-06-14T00:00:42;10.10;;;8.75;;
35530;SDS011;21637;53.352;-6.356;2023-06-14T00:03:08;12.40;;;8.95;;
35530;SDS011;21637;53.352;-6.356;2023-06-14T00:05:35;12.10;;;8.63;;
35530;SDS011;21637;53.352;-6.356;2023-06-14T00:08:08;9.90;;;9.02;;
35530;SDS011;21637;53.352;-6.356;2023-06-14T00:10:37;10.13;;;9.00;;
35530;SDS011;21637;53.352;-6.356;2023-06-14T00:13:04;9.18;;;8.27;;
35530;SDS011;21637;53.352;-6.356;2023-06-14T00:15:32;11.52;;;10.32;;
35530;SDS011;21637;53.352;-6.356;2023-06-14T00:17:59;11.38;;;9.88;;
35530;SDS011;21637;53.352;-6.356;2023-06-14T00:20:28;11.25;;;10.07;;
35530;SDS011;21637;53.352;-6.356;2023-06-14T00:22:55;11.05;;;9.95;;
35530;SDS011;21637;53.352;-6.356;2023-06-14T00:25:22;11.60;;;9.80;;
35530;SDS011;21637;53.352;-6.356;2023-06-14T00:27:52;12.25;;;10.00;;
35530;SDS011;21637;53.352;-6.356;2023-06-14T00:30:18;12.10;;;9.63;;
35530;SDS011;21637;53.352;-6.356;2023-06-14T00:32:44;10.68;;;9.68;;
35530;SDS011;21637;53.352;-6.356;2023-06-14T00:35:11;11.18;;;9.98;;
35530;SDS011;21637;53.352;-6.356;2023-06-14T00:37:37;10.95;;;9.88;;
35530;SDS011;21637;53.352;-6.356;2023-06-14T00:40:03;11.90;;;10.48;;
35530;SDS011;21637;53.352;-6.356;2023-06-14T00:42:30;12.80;;;10.75;;
35530;SDS011;21637;53.352;-6.356;2023-06-14T00:44:56;12.77;;;11.52;;
35530;SDS011;21637;53.352;-6.356;2023-06-14T00:47:22;12.13;;;11.02;;
35530;SDS011;21637;53.352;-6.356;2023-06-14T00:49:48;11.23;;;9.88;;
35530;SDS011;21637;53.352;-6.356;2023-06-14T00:52:16;11.77;;;10.57;;
35530;SDS011;21637;53.352;-6.356;2023-06-14T00:54:42;11.77;;;10.13;;
35530;SDS011;21637;53.352;-6.356;2023-06-14T00:57:09;12.05;;;10.45;;
35530;SDS011;21637;53.352;-6.356;2023-06-14T00:59:46;12.35;;;10.98;;
35530;SDS011;21637;53.352;-6.356;2023-06-14T01:02:13;11.52;;;10.43;;
35530;SDS011;21637;53.352;-6.356;2023-06-14T01:04:40;13.00;;;11.23;;
35530;SDS011;21637;53.352;-6.356;2023-06-14T01:12:37;11.82;;;10.60;;
35530;SDS011;21637;53.352;-6.356;2023-06-14T01:15:04;12.35;;;11.15;;
35530;SDS011;21637;53.352;-6.356;2023-06-14T01:17:32;12.35;;;11.07;;
35530;SDS011;21637;53.352;-6.356;2023-06-14T01:20:01;14.60;;;11.52;;
35530;SDS011;21637;53.352;-6.356;2023-06-14T01:22:28;12.10;;;10.07;;
35530;SDS011;21637;53.352;-6.356;2023-06-14T01:24:54;13.13;;;11.05;;
35530;SDS011;21637;53.352;-6.356;2023-06-14T01:27:26;12.43;;;10.35;;
35530;SDS011;21637;53.352;-6.356;2023-06-14T01:29:54;16.55;;;11.80;;
35530;SDS011;21637;53.352;-6.356;2023-06-14T01:32:24;12.10;;;10.95;;
35530;SDS011;21637;53.352;-6.356;2023-06-14T01:34:52;13.48;;;12.05;;
35530;SDS011;21637;53.352;-6.356;2023-06-14T01:37:18;12.13;;;10.75;;
35530;SDS011;21637;53.352;-6.356;2023-06-14T01:39:45;13.63;;;12.20;;
35530;SDS011;21637;53.352;-6.356;2023-06-14T01:42:14;12.93;;;11.63;;
35530;SDS011;21637;53.352;-6.356;2023-06-14T01:44:41;12.57;;;11.38;;
35530;SDS011;21637;53.352;-6.356;2023-06-14T01:47:09;13.35;;;11.55;;
35530;SDS011;21637;53.352;-6.356;2023-06-14T01:49:35;12.60;;;11.30;;
35530;SDS011;21637;53.352;-6.356;2023-06-14T01:52:01;12.15;;;10.95;;
35530;SDS011;21637;53.352;-6.356;2023-06-14T01:54:27;13.50;;;12.20;;
35530;SDS011;21637;53.352;-6.356;2023-06-14T01:56:54;12.43;;;11.18;;
35530;SDS011;21637;53.352;-6.356;2023-06-14T01:59:20;15.90;;;12.80;;
35530;SDS011;21637;53.352;-6.356;2023-06-14T02:01:45;14.38;;;12.85;;
35530;SDS011;21637;53.352;-6.356;2023-06-14T02:04:11;13.98;;;12.43;;
35530;SDS011;21637;53.352;-6.356;2023-06-14T02:06:37;13.82;;;12.38;;
35530;SDS011;21637;53.352;-6.356;2023-06-14T02:09:03;13.23;;;11.93;;
35530;SDS011;21637;53.352;-6.356;2023-06-14T02:11:29;14.35;;;12.30;;
35530;SDS011;21637;53.352;-6.356;2023-06-14T02:13:55;16.42;;;13.50;;
35530;SDS011;21637;53.352;-6.356;2023-06-14T02:16:21;15.63;;;13.50;;
35530;SDS011;21637;53.352;-6.356;2023-06-14T02:18:47;13.75;;;12.35;;
35530;SDS011;21637;53.352;-6.356;2023-06-14T02:21:13;14.27;;;12.88;;
35530;SDS011;21637;53.352;-6.356;2023-06-14T02:23:39;14.63;;;13.10;;
35530;SDS011;21637;53.352;-6.356;2023-06-14T02:26:05;16.30;;;14.57;;
35530;SDS011;21637;53.352;-6.356;2023-06-14T02:28:31;16.02;;;13.90;;
35530;SDS011;21637;53.352;-6.356;2023-06-14T02:30:57;16.85;;;14.40;;
35530;SDS011;21637;53.352;-6.356;2023-06-14T02:33:23;15.93;;;14.02;;
35530;SDS011;21637;53.352;-6.356;2023-06-14T02:35:50;15.10;;;13.55;;
35530;SDS011;21637;53.352;-6.356;2023-06-14T02:38:15;15.65;;;13.18;;
35530;SDS011;21637;53.352;-6.356;2023-06-14T02:40:41;17.40;;;13.50;;
35530;SDS011;21637;53.352;-6.356;2023-06-14T02:43:07;16.85;;;13.88;;
35530;SDS011;21637;53.352;-6.356;2023-06-14T02:45:33;17.58;;;14.30;;
35530;SDS011;21637;53.352;-6.356;2023-06-14T02:47:59;14.23;;;12.68;;
35530;SDS011;21637;53.352;-6.356;2023-06-14T02:50:25;14.95;;;13.50;;
35530;SDS011;21637;53.352;-6.356;2023-06-14T02:52:53;16.13;;;13.70;;
35530;SDS011;21637;53.352;-6.356;2023-06-14T02:55:20;16.98;;;14.07;;
35530;SDS011;21637;53.352;-6.356;2023-06-14T02:57:46;17.42;;;13.63;;
35530;SDS011;21637;53.352;-6.356;2023-06-14T03:00:13;16.33;;;13.95;;
35530;SDS011;21637;53.352;-6.356;2023-06-14T03:02:39;15.40;;;13.82;;
35530;SDS011;21637;53.352;-6.356;2023-06-14T03:05:05;14.77;;;13.27;;
35530;SDS011;21637;53.352;-6.356;2023-06-14T03:07:32;17.67;;;13.57;;
35530;SDS011;21637;53.352;-6.356;2023-06-14T03:09:57;14.95;;;13.35;;
35530;SDS011;21637;53.352;-6.356;2023-06-14T03:12:23;13.95;;;12.50;;
35530;SDS011;21637;53.352;-6.356;2023-06-14T03:14:50;16.13;;;14.30;;
35530;SDS011;21637;53.352;-6.356;2023-06-14T03:17:16;16.83;;;13.85;;
35530;SDS011;21637;53.352;-6.356;2023-06-14T03:19:42;15.48;;;13.55;;
35530;SDS011;21637;53.352;-6.356;2023-06-14T03:22:08;15.50;;;13.57;;
35530;SDS011;21637;53.352;-6.356;2023-06-14T03:24:36;14.57;;;13.07;;
35530;SDS011;21637;53.352;-6.356;2023-06-14T03:27:02;14.25;;;12.88;;
35530;SDS011;21637;53.352;-6.356;2023-06-14T03:29:28;16.80;;;13.43;;
35530;SDS011;21637;53.352;-6.356;2023-06-14T03:32:01;15.60;;;13.98;;
35530;SDS011;21637;53.352;-6.356;2023-06-14T03:34:28;16.05;;;13.00;;
35530;SDS011;21637;53.352;-6.356;2023-06-14T03:36:53;14.05;;;12.75;;
35530;SDS011;21637;53.352;-6.356;2023-06-14T03:39:19;14.55;;;12.90;;
35530;SDS011;21637;53.352;-6.356;2023-06-14T03:41:45;13.05;;;11.00;;
35530;SDS011;21637;53.352;-6.356;2023-06-14T03:44:14;11.95;;;10.30;;
35530;SDS011;21637;53.352;-6.356;2023-06-14T03:46:41;14.23;;;11.13;;
35530;SDS011;21637;53.352;-6.356;2023-06-14T03:49:07;11.80;;;9.43;;
35530;SDS011;21637;53.352;-6.356;2023-06-14T03:51:33;12.80;;;10.23;;
35530;SDS011;21637;53.352;-6.356;2023-06-14T03:54:00;11.10;;;9.85;;
35530;SDS011;21637;53.352;-6.356;2023-06-14T03:56:26;10.45;;;9.23;;
35530;SDS011;21637;53.352;-6.356;2023-06-14T03:58:52;13.70;;;9.70;;
35530;SDS011;21637;53.352;-6.356;2023-06-14T04:01:18;11.98;;;9.07;;
35530;SDS011;21637;53.352;-6.356;2023-06-14T04:03:43;9.35;;;8.38;;
35530;SDS011;21637;53.352;-6.356;2023-06-14T04:06:09;11.23;;;8.25;;
35530;SDS011;21637;53.352;-6.356;2023-06-14T04:08:35;9.70;;;8.30;;
35530;SDS011;21637;53.352;-6.356;2023-06-14T04:11:01;11.07;;;8.40;;
35530;SDS011;21637;53.352;-6.356;2023-06-14T04:13:27;10.27;;;7.63;;
35530;SDS011;21637;53.352;-6.356;2023-06-14T04:15:52;10.52;;;7.50;;
35530;SDS011;21637;53.352;-6.356;2023-06-14T04:18:18;10.85;;;8.20;;
35530;SDS011;21637;53.352;-6.356;2023-06-14T04:20:45;10.63;;;8.63;;
35530;SDS011;21637;53.352;-6.356;2023-06-14T04:23:15;9.95;;;8.18;;
35530;SDS011;21637;53.352;-6.356;2023-06-14T04:25:43;8.77;;;7.70;;
35530;SDS011;21637;53.352;-6.356;2023-06-14T04:28:13;10.43;;;8.00;;
35530;SDS011;21637;53.352;-6.356;2023-06-14T04:30:43;13.75;;;7.95;;
35530;SDS011;21637;53.352;-6.356;2023-06-14T04:33:09;10.75;;;7.65;;
35530;SDS011;21637;53.352;-6.356;2023-06-14T04:35:36;9.05;;;7.93;;
35530;SDS011;21637;53.352;-6.356;2023-06-14T04:38:02;10.25;;;7.55;;
35530;SDS011;21637;53.352;-6.356;2023-06-14T04:40:34;8.63;;;6.95;;
35530;SDS011;21637;53.352;-6.356;2023-06-14T04:43:01;10.35;;;7.22;;
35530;SDS011;21637;53.352;-6.356;2023-06-14T04:45:31;9.95;;;7.00;;
35530;SDS011;21637;53.352;-6.356;2023-06-14T04:48:00;9.63;;;6.85;;
35530;SDS011;21637;53.352;-6.356;2023-06-14T04:50:26;7.57;;;6.40;;
35530;SDS011;21637;53.352;-6.356;2023-06-14T04:52:52;8.73;;;7.40;;
35530;SDS011;21637;53.352;-6.356;2023-06-14T04:55:18;8.65;;;6.78;;
35530;SDS011;21637;53.352;-6.356;2023-06-14T04:57:45;10.13;;;7.47;;
35530;SDS011;21637;53.352;-6.356;2023-06-14T05:00:10;8.02;;;7.22;;
35530;SDS011;21637;53.352;-6.356;2023-06-14T05:02:37;8.02;;;7.22;;
35530;SDS011;21637;53.352;-6.356;2023-06-14T05:05:03;11.75;;;7.22;;
35530;SDS011;21637;53.352;-6.356;2023-06-14T05:07:32;13.40;;;7.72;;
35530;SDS011;21637;53.352;-6.356;2023-06-14T05:09:58;9.32;;;6.78;;
35530;SDS011;21637;53.352;-6.356;2023-06-14T05:12:24;7.85;;;6.63;;
35530;SDS011;21637;53.352;-6.356;2023-06-14T05:14:50;10.45;;;8.07;;
35530;SDS011;21637;53.352;-6.356;2023-06-14T05:17:16;12.15;;;7.22;;
35530;SDS011;21637;53.352;-6.356;2023-06-14T05:19:42;8.05;;;7.20;;
35530;SDS011;21637;53.352;-6.356;2023-06-14T05:22:08;9.20;;;7.35;;
35530;SDS011;21637;53.352;-6.356;2023-06-14T05:24:34;10.82;;;7.20;;
35530;SDS011;21637;53.352;-6.356;2023-06-14T05:27:00;9.30;;;7.00;;
35530;SDS011;21637;53.352;-6.356;2023-06-14T05:29:25;10.07;;;7.28;;
35530;SDS011;21637;53.352;-6.356;2023-06-14T05:31:52;9.05;;;7.38;;
35530;SDS011;21637;53.352;-6.356;2023-06-14T05:34:18;12.73;;;7.35;;
35530;SDS011;21637;53.352;-6.356;2023-06-14T05:36:44;7.68;;;6.85;;
35530;SDS011;21637;53.352;-6.356;2023-06-14T05:39:10;9.63;;;6.68;;
35530;SDS011;21637;53.352;-6.356;2023-06-14T05:41:35;13.10;;;6.53;;
35530;SDS011;21637;53.352;-6.356;2023-06-14T05:44:01;9.02;;;5.78;;
35530;SDS011;21637;53.352;-6.356;2023-06-14T05:46:27;9.02;;;6.50;;
35530;SDS011;21637;53.352;-6.356;2023-06-14T05:48:53;8.00;;;6.50;;
35530;SDS011;21637;53.352;-6.356;2023-06-14T05:51:19;8.40;;;6.47;;
35530;SDS011;21637;53.352;-6.356;2023-06-14T05:53:46;10.60;;;6.43;;
35530;SDS011;21637;53.352;-6.356;2023-06-14T05:56:12;10.35;;;6.40;;
35530;SDS011;21637;53.352;-6.356;2023-06-14T05:58:38;11.27;;;6.13;;
35530;SDS011;21637;53.352;-6.356;2023-06-14T06:01:04;10.05;;;6.05;;
35530;SDS011;21637;53.352;-6.356;2023-06-14T06:03:30;6.78;;;5.40;;
35530;SDS011;21637;53.352;-6.356;2023-06-14T06:05:57;10.60;;;5.53;;
35530;SDS011;21637;53.352;-6.356;2023-06-14T06:08:23;9.30;;;5.90;;
35530;SDS011;21637;53.352;-6.356;2023-06-14T06:10:49;10.27;;;5.72;;
35530;SDS011;21637;53.352;-6.356;2023-06-14T06:13:15;6.95;;;5.47;;
35530;SDS011;21637;53.352;-6.356;2023-06-14T06:15:41;6.97;;;5.15;;
35530;SDS011;21637;53.352;-6.356;2023-06-14T06:18:06;7.45;;;5.28;;
35530;SDS011;21637;53.352;-6.356;2023-06-14T06:20:32;7.80;;;4.95;;
35530;SDS011;21637;53.352;-6.356;2023-06-14T06:22:58;6.88;;;4.93;;
35530;SDS011;21637;53.352;-6.356;2023-06-14T06:25:27;8.45;;;5.13;;
35530;SDS011;21637;53.352;-6.356;2023-06-14T06:27:54;10.20;;;5.80;;
35530;SDS011;21637;53.352;-6.356;2023-06-14T06:30:21;8.38;;;5.28;;
35530;SDS011;21637;53.352;-6.356;2023-06-14T06:32:47;10.02;;;6.20;;
35530;SDS011;21637;53.352;-6.356;2023-06-14T06:35:13;10.27;;;6.07;;
35530;SDS011;21637;53.352;-6.356;2023-06-14T06:37:39;6.10;;;5.38;;
35530;SDS011;21637;53.352;-6.356;2023-06-14T06:40:08;9.50;;;5.75;;
35530;SDS011;21637;53.352;-6.356;2023-06-14T06:42:35;15.90;;;6.43;;
35530;SDS011;21637;53.352;-6.356;2023-06-14T06:45:01;8.10;;;5.50;;
35530;SDS011;21637;53.352;-6.356;2023-06-14T06:47:27;7.72;;;5.35;;
35530;SDS011;21637;53.352;-6.356;2023-06-14T06:49:52;7.20;;;5.68;;
35530;SDS011;21637;53.352;-6.356;2023-06-14T06:52:18;10.95;;;5.78;;
35530;SDS011;21637;53.352;-6.356;2023-06-14T06:54:44;11.82;;;5.32;;
35530;SDS011;21637;53.352;-6.356;2023-06-14T06:57:10;8.48;;;4.63;;
35530;SDS011;21637;53.352;-6.356;2023-06-14T06:59:36;7.93;;;4.90;;
35530;SDS011;21637;53.352;-6.356;2023-06-14T07:02:02;7.75;;;5.07;;
35530;SDS011;21637;53.352;-6.356;2023-06-14T07:04:28;7.80;;;5.70;;
35530;SDS011;21637;53.352;-6.356;2023-06-14T07:06:54;9.60;;;5.65;;
35530;SDS011;21637;53.352;-6.356;2023-06-14T07:09:20;7.55;;;4.80;;
35530;SDS011;21637;53.352;-6.356;2023-06-14T07:11:46;8.70;;;5.40;;
35530;SDS011;21637;53.352;-6.356;2023-06-14T07:14:12;14.85;;;5.90;;
35530;SDS011;21637;53.352;-6.356;2023-06-14T07:16:38;15.68;;;5.20;;
35530;SDS011;21637;53.352;-6.356;2023-06-14T07:19:04;10.32;;;4.78;;
35530;SDS011;21637;53.352;-6.356;2023-06-14T07:21:30;7.60;;;5.00;;
35530;SDS011;21637;53.352;-6.356;2023-06-14T07:23:56;8.23;;;4.68;;
35530;SDS011;21637;53.352;-6.356;2023-06-14T07:26:22;7.47;;;5.15;;
35530;SDS011;21637;53.352;-6.356;2023-06-14T07:28:48;7.82;;;4.78;;
35530;SDS011;21637;53.352;-6.356;2023-06-14T07:31:14;9.43;;;4.95;;
35530;SDS011;21637;53.352;-6.356;2023-06-14T07:33:41;5.32;;;4.72;;
35530;SDS011;21637;53.352;-6.356;2023-06-14T07:36:07;7.32;;;4.75;;
35530;SDS011;21637;53.352;-6.356;2023-06-14T07:38:33;8.93;;;5.32;;
35530;SDS011;21637;53.352;-6.356;2023-06-14T07:41:00;6.80;;;4.47;;
35530;SDS011;21637;53.352;-6.356;2023-06-14T07:43:25;12.15;;;5.05;;
35530;SDS011;21637;53.352;-6.356;2023-06-14T07:45:51;8.80;;;4.78;;
35530;SDS011;21637;53.352;-6.356;2023-06-14T07:48:17;7.72;;;4.68;;
35530;SDS011;21637;53.352;-6.356;2023-06-14T07:50:43;7.45;;;5.30;;
35530;SDS011;21637;53.352;-6.356;2023-06-14T07:53:09;6.97;;;4.60;;
35530;SDS011;21637;53.352;-6.356;2023-06-14T07:55:35;8.50;;;4.85;;
35530;SDS011;21637;53.352;-6.356;2023-06-14T07:58:05;6.13;;;4.40;;
35530;SDS011;21637;53.352;-6.356;2023-06-14T08:00:31;10.07;;;4.90;;
35530;SDS011;21637;53.352;-6.356;2023-06-14T08:02:57;7.88;;;4.60;;
35530;SDS011;21637;53.352;-6.356;2023-06-14T08:05:27;10.10;;;5.28;;
35530;SDS011;21637;53.352;-6.356;2023-06-14T08:07:54;5.85;;;4.63;;
35530;SDS011;21637;53.352;-6.356;2023-06-14T08:10:20;5.65;;;4.40;;
35530;SDS011;21637;53.352;-6.356;2023-06-14T08:12:47;5.82;;;4.40;;
35530;SDS011;21637;53.352;-6.356;2023-06-14T08:15:16;6.60;;;4.47;;
35530;SDS011;21637;53.352;-6.356;2023-06-14T08:17:42;8.30;;;4.93;;
35530;SDS011;21637;53.352;-6.356;2023-06-14T08:20:09;5.93;;;4.57;;
35530;SDS011;21637;53.352;-6.356;2023-06-14T08:22:35;12.25;;;5.45;;
35530;SDS011;21637;53.352;-6.356;2023-06-14T08:25:02;8.95;;;5.20;;
35530;SDS011;21637;53.352;-6.356;2023-06-14T08:27:29;10.02;;;5.13;;
35530;SDS011;21637;53.352;-6.356;2023-06-14T08:29:55;12.82;;;5.15;;
35530;SDS011;21637;53.352;-6.356;2023-06-14T08:32:21;13.23;;;4.72;;
35530;SDS011;21637;53.352;-6.356;2023-06-14T08:34:47;8.10;;;4.97;;
35530;SDS011;21637;53.352;-6.356;2023-06-14T08:37:13;7.63;;;4.78;;
35530;SDS011;21637;53.352;-6.356;2023-06-14T08:39:39;5.97;;;4.20;;
35530;SDS011;21637;53.352;-6.356;2023-06-14T08:42:05;7.32;;;4.78;;
35530;SDS011;21637;53.352;-6.356;2023-06-14T08:44:32;14.15;;;4.90;;
35530;SDS011;21637;53.352;-6.356;2023-06-14T08:46:59;10.60;;;4.70;;
35530;SDS011;21637;53.352;-6.356;2023-06-14T08:49:25;10.55;;;4.93;;
35530;SDS011;21637;53.352;-6.356;2023-06-14T08:51:58;44.00;;;6.90;;
35530;SDS011;21637;53.352;-6.356;2023-06-14T08:54:26;9.82;;;4.78;;
35530;SDS011;21637;53.352;-6.356;2023-06-14T08:56:55;5.78;;;4.15;;
35530;SDS011;21637;53.352;-6.356;2023-06-14T08:59:31;5.80;;;4.32;;
35530;SDS011;21637;53.352;-6.356;2023-06-14T09:02:04;6.22;;;3.75;;
35530;SDS011;21637;53.352;-6.356;2023-06-14T09:04:31;6.40;;;4.45;;
35530;SDS011;21637;53.352;-6.356;2023-06-14T09:06:58;6.57;;;3.83;;
35530;SDS011;21637;53.352;-6.356;2023-06-14T09:09:24;4.47;;;3.80;;
35530;SDS011;21637;53.352;-6.356;2023-06-14T09:11:50;8.00;;;3.92;;
35530;SDS011;21637;53.352;-6.356;2023-06-14T09:14:18;4.75;;;3.55;;
35530;SDS011;21637;53.352;-6.356;2023-06-14T09:16:44;7.55;;;3.90;;
35530;SDS011;21637;53.352;-6.356;2023-06-14T09:19:31;7.15;;;3.70;;
35530;SDS011;21637;53.352;-6.356;2023-06-14T09:21:56;6.30;;;3.10;;
35530;SDS011;21637;53.352;-6.356;2023-06-14T09:24:23;6.63;;;3.15;;
35530;SDS011;21637;53.352;-6.356;2023-06-14T09:26:51;6.70;;;3.13;;
35530;SDS011;21637;53.352;-6.356;2023-06-14T09:29:17;4.75;;;3.10;;
35530;SDS011;21637;53.352;-6.356;2023-06-14T09:31:45;4.22;;;2.90;;
35530;SDS011;21637;53.352;-6.356;2023-06-14T09:34:12;5.05;;;3.10;;
35530;SDS011;21637;53.352;-6.356;2023-06-14T09:36:38;5.45;;;3.30;;
35530;SDS011;21637;53.352;-6.356;2023-06-14T09:39:05;4.70;;;3.10;;
35530;SDS011;21637;53.352;-6.356;2023-06-14T09:41:33;5.72;;;3.22;;
35530;SDS011;21637;53.352;-6.356;2023-06-14T09:44:09;6.28;;;2.95;;
35530;SDS011;21637;53.352;-6.356;2023-06-14T09:46:37;6.50;;;2.83;;
35530;SDS011;21637;53.352;-6.356;2023-06-14T09:49:03;6.57;;;3.75;;
35530;SDS011;21637;53.352;-6.356;2023-06-14T09:51:30;6.18;;;2.90;;
35530;SDS011;21637;53.352;-6.356;2023-06-14T09:53:58;4.28;;;3.33;;
35530;SDS011;21637;53.352;-6.356;2023-06-14T09:56:29;7.95;;;3.45;;
35530;SDS011;21637;53.352;-6.356;2023-06-14T09:58:59;8.95;;;3.70;;
35530;SDS011;21637;53.352;-6.356;2023-06-14T10:01:30;5.90;;;3.42;;
35530;SDS011;21637;53.352;-6.356;2023-06-14T10:04:01;6.80;;;3.20;;
35530;SDS011;21637;53.352;-6.356;2023-06-14T10:06:29;4.30;;;3.25;;
35530;SDS011;21637;53.352;-6.356;2023-06-14T10:08:59;5.45;;;3.60;;
35530;SDS011;21637;53.352;-6.356;2023-06-14T10:11:25;5.85;;;2.90;;
35530;SDS011;21637;53.352;-6.356;2023-06-14T10:13:52;9.93;;;3.65;;
35530;SDS011;21637;53.352;-6.356;2023-06-14T10:22:11;8.73;;;3.28;;
35530;SDS011;21637;53.352;-6.356;2023-06-14T10:24:42;8.13;;;3.78;;
35530;SDS011;21637;53.352;-6.356;2023-06-14T10:27:09;9.10;;;3.47;;
35530;SDS011;21637;53.352;-6.356;2023-06-14T10:32:20;5.72;;;3.58;;
35530;SDS011;21637;53.352;-6.356;2023-06-14T10:34:51;5.32;;;3.33;;
35530;SDS011;21637;53.352;-6.356;2023-06-14T10:37:22;11.93;;;4.10;;
35530;SDS011;21637;53.352;-6.356;2023-06-14T10:39:49;5.70;;;3.22;;
35530;SDS011;21637;53.352;-6.356;2023-06-14T10:42:15;7.97;;;3.60;;
35530;SDS011;21637;53.352;-6.356;2023-06-14T10:47:50;9.25;;;3.50;;
35530;SDS011;21637;53.352;-6.356;2023-06-14T10:50:09;8.43;;;3.95;;
35530;SDS011;21637;53.352;-6.356;2023-06-14T10:52:43;9.07;;;4.13;;
35530;SDS011;21637;53.352;-6.356;2023-06-14T10:55:15;11.68;;;4.22;;
35530;SDS011;21637;53.352;-6.356;2023-06-14T10:57:44;9.57;;;4.38;;
35530;SDS011;21637;53.352;-6.356;2023-06-14T11:00:11;10.57;;;4.60;;
35530;SDS011;21637;53.352;-6.356;2023-06-14T11:05:30;6.05;;;3.20;;
35530;SDS011;21637;53.352;-6.356;2023-06-14T11:10:38;11.43;;;3.72;;
35530;SDS011;21637;53.352;-6.356;2023-06-14T11:13:08;8.30;;;3.88;;
35530;SDS011;21637;53.352;-6.356;2023-06-14T11:15:35;5.68;;;3.70;;
35530;SDS011;21637;53.352;-6.356;2023-06-14T11:18:02;10.93;;;3.97;;
35530;SDS011;21637;53.352;-6.356;2023-06-14T11:20:33;10.35;;;4.38;;
35530;SDS011;21637;53.352;-6.356;2023-06-14T11:23:00;8.13;;;4.00;;
35530;SDS011;21637;53.352;-6.356;2023-06-14T11:25:27;7.97;;;4.03;;
35530;SDS011;21637;53.352;-6.356;2023-06-14T11:27:53;10.27;;;4.43;;
35530;SDS011;21637;53.352;-6.356;2023-06-14T11:30:19;10.60;;;4.43;;
35530;SDS011;21637;53.352;-6.356;2023-06-14T11:32:46;10.18;;;4.15;;
35530;SDS011;21637;53.352;-6.356;2023-06-14T11:35:12;9.25;;;5.20;;
35530;SDS011;21637;53.352;-6.356;2023-06-14T11:37:38;10.55;;;4.82;;
35530;SDS011;21637;53.352;-6.356;2023-06-14T11:40:07;9.27;;;4.43;;
35530;SDS011;21637;53.352;-6.356;2023-06-14T11:42:35;13.57;;;4.85;;
35530;SDS011;21637;53.352;-6.356;2023-06-14T11:45:01;12.32;;;5.05;;
35530;SDS011;21637;53.352;-6.356;2023-06-14T11:47:46;9.75;;;5.18;;
35530;SDS011;21637;53.352;-6.356;2023-06-14T11:50:11;7.40;;;4.25;;
35530;SDS011;21637;53.352;-6.356;2023-06-14T11:52:37;9.68;;;4.60;;
35530;SDS011;21637;53.352;-6.356;2023-06-14T11:55:03;8.02;;;4.70;;
35530;SDS011;21637;53.352;-6.356;2023-06-14T11:57:30;8.15;;;4.80;;
35530;SDS011;21637;53.352;-6.356;2023-06-14T12:00:02;11.02;;;4.80;;
35530;SDS011;21637;53.352;-6.356;2023-06-14T12:02:31;7.43;;;4.78;;
35530;SDS011;21637;53.352;-6.356;2023-06-14T12:05:03;9.70;;;5.07;;
35530;SDS011;21637;53.352;-6.356;2023-06-14T12:07:32;9.63;;;5.22;;
35530;SDS011;21637;53.352;-6.356;2023-06-14T12:12:24;7.88;;;4.47;;
35530;SDS011;21637;53.352;-6.356;2023-06-14T12:14:51;8.02;;;4.65;;
35530;SDS011;21637;53.352;-6.356;2023-06-14T12:17:17;7.78;;;5.03;;
35530;SDS011;21637;53.352;-6.356;2023-06-14T12:19:44;7.40;;;4.82;;
35530;SDS011;21637;53.352;-6.356;2023-06-14T12:22:11;9.70;;;4.32;;
35530;SDS011;21637;53.352;-6.356;2023-06-14T12:24:38;9.88;;;4.50;;
35530;SDS011;21637;53.352;-6.356;2023-06-14T12:27:07;11.07;;;4.00;;
35530;SDS011;21637;53.352;-6.356;2023-06-14T12:29:33;11.77;;;4.18;;
35530;SDS011;21637;53.352;-6.356;2023-06-14T12:32:00;9.27;;;4.43;;
35530;SDS011;21637;53.352;-6.356;2023-06-14T12:34:29;5.55;;;4.07;;
35530;SDS011;21637;53.352;-6.356;2023-06-14T12:36:56;9.30;;;4.75;;
35530;SDS011;21637;53.352;-6.356;2023-06-14T12:39:22;7.80;;;4.03;;
35530;SDS011;21637;53.352;-6.356;2023-06-14T12:41:48;13.02;;;4.82;;
35530;SDS011;21637;53.352;-6.356;2023-06-14T12:44:14;7.53;;;4.25;;
35530;SDS011;21637;53.352;-6.356;2023-06-14T12:46:43;10.82;;;5.28;;
35530;SDS011;21637;53.352;-6.356;2023-06-14T12:49:10;12.80;;;4.07;;
35530;SDS011;21637;53.352;-6.356;2023-06-14T12:51:37;8.88;;;3.58;;
35530;SDS011;21637;53.352;-6.356;2023-06-14T12:54:04;13.18;;;4.53;;
35530;SDS011;21637;53.352;-6.356;2023-06-14T12:56:30;5.70;;;3.47;;
35530;SDS011;21637;53.352;-6.356;2023-06-14T12:58:56;10.93;;;4.32;;
35530;SDS011;21637;53.352;-6.356;2023-06-14T13:01:23;8.45;;;3.78;;
35530;SDS011;21637;53.352;-6.356;2023-06-14T13:03:48;7.53;;;3.90;;
35530;SDS011;21637;53.352;-6.356;2023-06-14T13:06:16;10.55;;;4.00;;
35530;SDS011;21637;53.352;-6.356;2023-06-14T13:08:42;7.15;;;4.13;;
35530;SDS011;21637;53.352;-6.356;2023-06-14T13:11:08;8.07;;;3.90;;
35530;SDS011;21637;53.352;-6.356;2023-06-14T13:13:34;7.50;;;3.95;;
35530;SDS011;21637;53.352;-6.356;2023-06-14T13:16:00;7.60;;;4.22;;
35530;SDS011;21637;53.352;-6.356;2023-06-14T13:18:26;8.02;;;4.50;;
35530;SDS011;21637;53.352;-6.356;2023-06-14T13:20:51;4.50;;;3.50;;
35530;SDS011;21637;53.352;-6.356;2023-06-14T13:23:17;21.33;;;4.55;;
35530;SDS011;21637;53.352;-6.356;2023-06-14T13:25:43;8.75;;;4.15;;
35530;SDS011;21637;53.352;-6.356;2023-06-14T13:28:09;13.85;;;4.82;;
35530;SDS011;21637;53.352;-6.356;2023-06-14T13:30:34;10.10;;;4.07;;
35530;SDS011;21637;53.352;-6.356;2023-06-14T13:33:00;7.05;;;3.72;;
35530;SDS011;21637;53.352;-6.356;2023-06-14T13:35:26;12.93;;;4.55;;
35530;SDS011;21637;53.352;-6.356;2023-06-14T13:37:52;13.32;;;5.03;;
35530;SDS011;21637;53.352;-6.356;2023-06-14T13:40:18;12.57;;;5.32;;
35530;SDS011;21637;53.352;-6.356;2023-06-14T13:42:45;11.05;;;4.53;;
35530;SDS011;21637;53.352;-6.356;2023-06-14T13:45:11;8.88;;;4.60;;
35530;SDS011;21637;53.352;-6.356;2023-06-14T13:47:38;18.50;;;6.22;;
35530;SDS011;21637;53.352;-6.356;2023-06-14T13:50:04;13.45;;;5.90;;
35530;SDS011;21637;53.352;-6.356;2023-06-14T13:52:30;15.43;;;5.85;;
35530;SDS011;21637;53.352;-6.356;2023-06-14T13:54:56;10.82;;;5.00;;
35530;SDS011;21637;53.352;-6.356;2023-06-14T13:57:22;13.75;;;4.72;;
35530;SDS011;21637;53.352;-6.356;2023-06-14T13:59:48;15.35;;;4.38;;
35530;SDS011;21637;53.352;-6.356;2023-06-14T14:02:14;10.32;;;4.32;;
35530;SDS011;21637;53.352;-6.356;2023-06-14T14:04:39;7.18;;;3.78;;
35530;SDS011;21637;53.352;-6.356;2023-06-14T14:07:06;6.53;;;4.20;;
35530;SDS011;21637;53.352;-6.356;2023-06-14T14:09:32;12.20;;;4.03;;
35530;SDS011;21637;53.352;-6.356;2023-06-14T14:11:59;8.70;;;4.43;;
35530;SDS011;21637;53.352;-6.356;2023-06-14T14:14:27;6.53;;;3.83;;
35530;SDS011;21637;53.352;-6.356;2023-06-14T14:16:53;8.20;;;4.13;;
35530;SDS011;21637;53.352;-6.356;2023-06-14T14:19:20;13.50;;;4.10;;
35530;SDS011;21637;53.352;-6.356;2023-06-14T14:21:47;10.27;;;4.10;;
35530;SDS011;21637;53.352;-6.356;2023-06-14T14:24:13;8.52;;;4.25;;
35530;SDS011;21637;53.352;-6.356;2023-06-14T14:26:39;9.50;;;4.18;;
35530;SDS011;21637;53.352;-6.356;2023-06-14T14:29:04;10.15;;;4.20;;
35530;SDS011;21637;53.352;-6.356;2023-06-14T14:31:31;9.98;;;4.43;;
35530;SDS011;21637;53.352;-6.356;2023-06-14T14:33:57;9.15;;;4.15;;
35530;SDS011;21637;53.352;-6.356;2023-06-14T14:36:23;11.52;;;4.38;;
35530;SDS011;21637;53.352;-6.356;2023-06-14T14:38:48;8.07;;;3.75;;
35530;SDS011;21637;53.352;-6.356;2023-06-14T14:41:16;7.30;;;4.07;;
35530;SDS011;21637;53.352;-6.356;2023-06-14T14:43:42;12.68;;;5.03;;
35530;SDS011;21637;53.352;-6.356;2023-06-14T14:46:08;11.02;;;4.10;;
35530;SDS011;21637;53.352;-6.356;2023-06-14T14:48:34;12.65;;;4.57;;